< < Back
Terminal Aerodrome Forecast


Current Version              Previous Versions:   1  2  3  4  5  6  7  8  9  

Terminal Aerodrome Forecast

987
FTUS44 KMOB 211700 RRA
TAFMOB
TAF
KMOB 211754Z 2118/2218 00000KT P6SM BKN035 BKN250
     FM212100 21005KT P6SM VCTS BKN030CB BKN250
     FM220000 20004KT P6SM FEW250
     FM221200 00000KT P6SM SCT250=

Latest METAR

290
SAUS80 KWBC 221500 RRA
MTRMOB
METAR KMOB 221456Z 01007KT 10SM CLR 31/24 A3013 RMK AO2 SLP199 T03110239
51007


USA.gov is the U.S. government's official web portal to all federal, state and local government web resources and services.